Latest Coastal Weather Observations for Coolangatta (QLD)

IDN60701

Issued at 12:02 am EST Sunday 26 June 2016 (issued every 10 minutes, with the page automatically refreshed every 10 minutes)

About coastal observations | Map of coastal stations | Coastal observations for NSW | Marine services | Other Formats
Station Details ID: 040717 Name: COOLANGATTA Lat: -28.17 Lon: 153.51 Height: 4.0 m
Data from the previous 72 hours. | See also: Recent months at Coolangatta (QLD)
Date/Time
EST
Temp
°C
Wind Pressure Rain since
9am
mm
Weather Cloud Vis
km
Sea
Height
m
Swell
Dir  Spd
kts
Gust
kts
hPa Trend Height
m
Period
s
Dir
26/12:00am 5.6 SW 4 5 1019.3 - 0.0 - - 10 - - - -
 
Date/Time
EST
Temp
°C
Wind Pressure Rain since
9am
mm
Weather Cloud Vis
km
Sea
Height
m
Swell
Dir  Spd
kts
Gust
kts
hPa Trend Height
m
Period
s
Dir
25/11:30pm 6.1 SW 4 5 1019.5 - 0.0 - - 10 - - - -
25/11:00pm 6.8 SSW 4 4 1019.6 - 0.0 - - 10 - - - -
25/10:30pm 6.5 SW 3 5 1019.9 - 0.0 - - 10 - - - -
25/10:00pm 6.7 WSW 3 5 1019.9 - 0.0 - - 10 - - - -
25/09:30pm 6.8 SW 3 4 1019.7 - 0.0 - - 10 - - - -
25/09:00pm 6.8 SW 3 5 1019.7 - 0.0 - - 10 - - - -
25/08:30pm 7.6 SW 3 4 1019.7 - 0.0 - - 10 - - - -
25/08:00pm 7.6 SW 1 4 1019.6 - 0.0 - - 10 - - - -
25/07:30pm 8.0 SW 5 7 1019.4 - 0.0 - - 10 - - - -
25/07:00pm 8.3 SW 6 8 1019.1 - 0.0 - - 10 - - - -
25/06:30pm 8.5 WSW 4 5 1018.8 - 0.0 - - 10 - - - -
25/06:00pm 8.4 SW 3 4 1018.4 - 0.0 - - 10 - - - -
25/05:30pm 9.4 SSW 3 4 1018.1 - 0.0 - - 10 - - - -
25/05:00pm 13.3 S 4 5 1017.7 - 0.0 - - 10 - - - -
25/04:30pm 14.6 S 6 8 1017.3 - 0.0 - - 10 - - - -
25/04:00pm 15.8 S 7 9 1017.1 - 0.0 - - 10 - - - -
25/03:30pm 16.4 SSW 7 10 1016.9 - 0.0 - - 10 - - - -
25/03:00pm 17.0 S 10 14 1016.8 - 0.0 - - 10 - - - -
25/02:30pm 17.0 SSE 8 12 1016.6 - 0.0 - - 10 - - - -
25/02:00pm 17.2 SSE 6 13 1016.6 - 0.0 - - 10 - - - -
25/01:30pm 16.8 SSE 8 12 1016.8 - 0.0 - - 10 - - - -
25/01:00pm 16.9 S 8 12 1016.9 - 0.0 - - 10 - - - -
25/12:30pm 16.3 SSW 8 11 1017.2 - 0.0 - - 10 - - - -
25/12:00pm 16.4 S 9 15 1017.5 - 0.0 - - 10 - - - -
25/11:30am 16.7 SSW 9 16 1017.8 - 0.0 - - 10 - - - -
25/11:00am 15.7 SSW 11 17 1017.9 - 0.0 - - 10 - - - -
25/10:30am 15.5 SW 11 16 1017.9 - 0.0 - - 10 - - - -
25/10:00am 15.2 SSW 9 14 1018.0 - 0.0 - - 10 - - - -
25/09:30am 14.7 WSW 4 6 1018.0 - 0.0 - - 10 - - - -
25/09:00am 14.2 WNW 3 5 1017.8 - - - - 10 - - - -
25/08:30am 12.5 WSW 4 5 1017.5 - - - - 10 - - - -
25/08:00am 11.0 WSW 7 8 1017.2 - - - - 10 - - - -
25/07:30am 9.4 WSW 7 10 1017.2 - - - - 10 - - - -
25/07:00am 8.0 W 6 7 1016.8 - - - - 10 - - - -
25/06:30am 8.9 WSW 4 6 1016.5 - - - - 10 - - - -
25/06:00am 9.7 SW 4 6 1016.4 - - - - 10 - - - -
25/05:30am 10.3 S 4 5 1016.0 - - - - 10 - - - -
25/05:00am 11.0 SSE 7 12 1015.6 - - - - 10 - - - -
25/04:30am 10.1 S 6 8 1014.8 - - - - 10 - - - -
25/04:00am 11.6 SSE 8 11 1014.4 - - - - 10 - - - -
25/03:30am 11.2 S 7 10 1014.3 - - - - 10 - - - -
25/03:00am 13.5 SW 11 16 1013.6 - - - - 10 - - - -
25/02:30am 13.7 SW 11 18 1013.8 - - - - 10 - - - -
25/02:00am 14.0 SSW 11 17 1013.5 - - - - 10 - - - -
25/01:30am 14.0 SSW 12 20 1013.2 - - - - 10 - - - -
25/01:00am 14.4 SSW 11 16 1013.1 - - - - 10 - - - -
25/12:30am 14.5 SSW 12 17 1012.8 - - - - 10 - - - -
25/12:00am 14.0 S 8 13 1012.5 - - - - 10 - - - -
 
Date/Time
EST
Temp
°C
Wind Pressure Rain since
9am
mm
Weather Cloud Vis
km
Sea
Height
m
Swell
Dir  Spd
kts
Gust
kts
hPa Trend Height
m
Period
s
Dir
24/11:30pm 12.8 ESE 5 8 1012.2 - - - - 10 - - - -
24/11:00pm 13.8 SW 5 9 1011.5 - - - - 10 - - - -
24/10:30pm 13.6 ESE 6 8 1011.3 - - - - 10 - - - -
24/10:00pm 14.1 ESE 4 6 1011.1 - - - - 10 - - - -
24/09:30pm 16.4 W 7 14 1010.7 - - - - 10 - - - -
24/09:15pm 16.3 W 7 12 1010.5 - - - - 10 - - - -
24/09:14pm 8.5 W 7 13 1012.4 - - - - 10 - - - -
24/09:00pm 16.5 WNW 11 16 1010.5 - 0.2 - - 10 - - - -
24/08:30pm 17.0 WNW 12 17 1010.3 - 0.2 - - 10 - - - -
24/08:00pm 17.3 WNW 13 21 1010.2 - 0.2 - - 10 - - - -
24/07:30pm 17.4 WNW 12 19 1010.2 - 0.2 - - 10 - - - -
24/07:00pm 18.6 W 14 22 1009.9 - 0.2 - - 10 - - - -
24/06:30pm 19.3 W 12 20 1009.7 - 0.2 - - 10 - - - -
24/06:00pm 19.9 W 8 16 1009.3 - 0.2 - - 10 - - - -
24/05:30pm 20.2 WSW 10 17 1008.4 - 0.2 - - 10 - - - -
24/05:00pm 20.8 W 17 33 1007.4 - 0.2 - - 10 - - - -
24/04:30pm 21.7 W 17 29 1007.0 - 0.2 - - 10 - - - -
24/04:12pm 22.1 WNW 17 27 1007.0 - 0.2 - - 10 - - - -
24/04:00pm 22.4 WNW 17 24 1006.8 - 0.2 - - 10 - - - -
24/03:35pm 23.0 WNW 15 25 1006.6 - 0.2 - - 10 - - - -
24/03:30pm 23.0 WNW 13 21 1006.8 - 0.2 - - 10 - - - -
24/03:01pm 23.2 WNW 15 25 1006.5 - 0.2 - - 10 - - - -
24/03:00pm 23.4 WNW 15 24 1006.6 - 0.2 - - 10 - - - -
24/02:30pm 23.7 WNW 14 20 1006.5 - 0.2 - - 10 - - - -
24/02:01pm 23.7 WNW 15 27 1006.6 - 0.2 - - 10 - - - -
24/02:00pm 23.5 WNW 14 27 1006.6 - 0.2 - - 10 - - - -
24/01:30pm 23.8 WNW 12 19 1006.7 - 0.2 - - 10 - - - -
24/01:00pm 23.6 W 17 23 1007.0 - 0.2 - - 10 - - - -
24/12:43pm 23.3 WNW 15 26 1007.2 - 0.2 - - 10 - - - -
24/12:30pm 23.5 WNW 15 23 1007.5 - 0.2 - - 10 - - - -
24/12:00pm 22.9 WNW 12 21 1008.2 - 0.2 - - 10 - - - -
24/11:30am 22.1 WNW 12 23 1008.8 - 0.2 - - 10 - - - -
24/11:00am 22.0 WNW 12 18 1009.5 - 0.2 - - 10 - - - -
24/10:30am 21.5 NW 12 17 1010.0 - 0.2 - - 10 - - - -
24/10:00am 20.8 NW 13 21 1010.3 - 0.0 - - 10 - - - -
24/09:30am 19.7 WNW 12 18 1010.6 - 0.0 - - 10 - - - -
24/09:00am 18.4 NW 12 17 1010.7 - 0.2 - Mostly cloudy 10 - - - -
24/08:30am 18.5 NW 13 18 1010.6 - 0.2 - - 10 - - - -
24/08:00am 18.7 WNW 13 20 1010.2 - 0.2 - - 10 - - - -
24/07:30am 18.7 NW 14 23 1010.1 - 0.2 - - 10 - - - -
24/07:00am 19.0 WNW 13 19 1010.2 - 0.2 - - 10 - - - -
24/06:30am 17.9 NW 10 14 1010.1 - 0.2 - - 10 - - - -
24/06:00am 17.5 NW 11 15 1009.8 - 0.2 - Cloudy 10 - - - -
24/05:30am 17.4 NW 10 14 1009.8 - 0.2 - Cloudy 10 - - - -
24/05:00am 17.5 NW 9 14 1009.7 - 0.2 - Cloudy 10 - - - -
24/04:30am 17.3 NW 9 15 1009.6 - 0.2 - Cloudy 10 - - - -
24/04:00am 16.4 NNW 9 11 1010.1 - 0.2 - Cloudy 10 - - - -
24/03:30am 16.3 NNW 8 11 1010.3 - 0.2 - - 10 - - - -
24/03:00am 16.6 NNW 6 9 1010.7 - 0.2 - Cloudy 10 - - - -
24/02:30am 16.5 NW 10 14 1010.5 - 0.2 - - 10 - - - -
24/02:00am 16.6 NW 9 13 1010.7 - 0.2 - Partly cloudy 10 - - - -
24/01:30am 16.6 NW 12 17 1011.3 - 0.2 - Partly cloudy 10 - - - -
24/01:00am 16.5 NNW 11 15 1011.8 - 0.2 - Cloudy 10 - - - -
24/12:30am 16.2 NNW 11 15 1011.4 - 0.2 - Partly cloudy 10 - - - -
24/12:00am 16.4 NNW 11 16 1011.9 - 0.2 - Cloudy 10 - - - -
 
Date/Time
EST
Temp
°C
Wind Pressure Rain since
9am
mm
Weather Cloud Vis
km
Sea
Height
m
Swell
Dir  Spd
kts
Gust
kts
hPa Trend Height
m
Period
s
Dir
23/11:30pm 16.5 NNW 11 18 1012.2 - 0.2 - - 10 - - - -
23/11:00pm 16.4 NNW 11 14 1011.9 - 0.2 - Partly cloudy 10 - - - -
23/10:30pm 16.7 NNW 11 14 1012.5 - 0.2 - Partly cloudy 10 - - - -
23/10:00pm 16.5 NNW 8 11 1012.4 - 0.2 - Cloudy 10 - - - -
23/09:30pm 16.3 NNW 9 12 1012.7 - 0.2 - Cloudy 10 - - - -
23/09:00pm 15.5 WNW 3 5 1012.4 - 0.2 - Cloudy 10 - - - -
23/08:30pm 15.9 WNW 3 6 1012.3 - 0.2 - Cloudy 10 - - - -
23/08:00pm 15.9 N 6 8 1012.3 - 0.2 - Cloudy 10 - - - -
23/07:30pm 15.5 N 6 8 1012.4 - 0.2 - Cloudy 10 - - - -
23/07:00pm 15.8 NW 5 6 1012.5 - 0.2 - Partly cloudy 10 - - - -
23/06:30pm 15.3 NNW 5 7 1012.1 - 0.2 - Partly cloudy 10 - - - -
23/06:00pm 15.2 CALM 0 0 1012.1 - 0.2 - Cloudy 10 - - - -
23/05:30pm 15.4 WSW 4 5 1012.0 - 0.2 - Partly cloudy 10 - - - -
23/05:00pm 15.5 NNW 3 5 1011.9 - 0.2 - Cloudy 10 - - - -
23/04:30pm 15.8 WNW 3 4 1011.9 - 0.2 - Cloudy 10 - - - -
23/04:00pm 16.1 NNW 3 4 1012.0 - 0.2 - Cloudy 10 - - - -
23/03:30pm 16.1 CALM 0 0 1011.9 - 0.2 - Cloudy 10 - - - -
23/03:00pm 16.1 CALM 0 2 1012.2 - 0.2 - Cloudy 10 - - - -
23/02:30pm 16.4 CALM 0 0 1012.2 - 0.2 - Cloudy 10 - - - -
23/02:00pm 16.6 S 2 3 1012.3 - 0.2 - Cloudy 10 - - - -
23/01:30pm 16.6 SW 2 4 1012.9 - 0.2 - Cloudy 10 - - - -
23/01:00pm 16.7 CALM 0 0 1012.9 - 0.2 - Cloudy 10 - - - -
23/12:30pm 16.3 SE 4 4 1013.6 - 0.2 - Cloudy 10 - - - -
23/12:00pm 16.1 W 2 4 1014.0 - 0.2 Showers Cloudy 10 - - - -
23/11:30am 15.8 S 2 5 1014.2 - 0.2 - Partly cloudy 10 - - - -
23/11:00am 15.7 SSW 2 5 1014.4 - 0.2 - Partly cloudy 10 - - - -
23/10:30am 15.6 NW 3 5 1014.8 - 0.2 - Partly cloudy 10 - - - -
23/10:00am 14.9 WSW 3 4 1015.3 - 0.2 - Cloudy 10 - - - -
23/09:30am 14.7 SW 3 4 1015.4 - 0.2 - Partly cloudy 10 - - - -
23/09:00am 14.4 SSW 1 4 1015.4 - 0.0 Rain Cloudy 10 - - - -
23/08:30am 14.3 WSW 2 4 1015.1 - 0.0 - Partly cloudy 10 - - - -
23/08:00am 13.9 CALM 0 3 1014.7 - 0.0 - - 10 - - - -
23/07:30am 13.2 WSW 3 4 1014.7 - 0.0 - Partly cloudy 10 - - - -
23/07:00am 13.1 WSW 5 7 1014.4 - 0.0 - - 10 - - - -
23/06:30am 12.5 NNW 1 4 1014.3 - 0.0 - - 10 - - - -
23/06:00am 12.7 CALM 0 0 1014.8 - 0.0 - Cloudy 10 - - - -
23/05:30am 12.8 WSW 3 4 1014.4 - 0.0 - - 10 - - - -
23/05:00am 12.9 CALM 0 0 1013.7 - 0.0 - - 10 - - - -
23/04:30am 13.0 CALM 0 0 1013.2 - 0.0 - - 10 - - - -
23/04:00am 13.3 SSE 3 4 1013.5 - 0.0 - - 10 - - - -
23/03:30am 13.2 SW 4 4 1013.1 - 0.0 - - 10 - - - -
23/03:00am 13.0 WNW 2 4 1012.7 - 0.0 - Mostly cloudy 10 - - - -
23/02:30am 13.2 SSE 2 4 1012.5 - 0.0 - - 10 - - - -
23/02:00am 13.7 SW 5 6 1013.0 - 0.0 - - 10 - - - -
23/01:30am 13.6 SSW 3 5 1012.6 - 0.0 - - 10 - - - -
23/01:00am 13.9 WSW 3 3 1013.0 - 0.0 - - 10 - - - -
23/12:30am 14.1 W 4 5 1013.8 - 0.0 - - 10 - - - -

Other Formats:

Comma delimited format used in spreadsheet applications
http://www.bom.gov.au/fwo/IDN60701/IDN60701.94592.axf

JavaScript Object Notation format (JSON) in row-major order
http://www.bom.gov.au/fwo/IDN60701/IDN60701.94592.json